»·PEaware :: SWA5923 KMRY-KLAX

SWA5923 :: KMRY-KLAX

FLIGHT INFORMATION

Flight Status: Arrived
Operator:
Southwest Airlines
More flights by this operator :: More flights under this callsign
Pilot: Max W. (2591)
Aircraft: BOEING 737-800
(B738)
More flights by this aircraft type
Origin: KMRY Monterey Peninsula
United States
Destination: KLAX Los Angeles Intl
United States
More flights between these airports :: More routes between these airports
Route: +MRY4 BURGL IRNMN2
File this flight plan on PilotEdge
Remarks: STUDENT PILOT WILL NEED PROGRESSIVE TAXI
Altitude:
(Current/Filed)
29,000ft
Speed:
(Current/Filed)
450kts
Departed: 18-Nov-18 02:44 PM
Arrived: 18-Nov-18 03:31 PM
Distance/Time
Traveled:
231nm/0:47
Distance/Time
To Go:
Arrived

Flight Plot

Page will automatically refresh every two minutes.

Flight plan parsing failed; only flown route is shown


Map Options




Map Legend


Flown Route
Filed Route
Departure Airport
Arrival Airport
Navaid (VOR, NDB)
Fix

Horizontal Profiles

Position Reports

Time Latitude Longitude Heading Altitude Ground
Speed
18-Nov-18 14:26 36.587512 -121.850010 232 169ft 0kts
18-Nov-18 14:27 36.587512 -121.850010 232 169ft 0kts
18-Nov-18 14:28 36.587512 -121.850010 232 169ft 0kts
18-Nov-18 14:29 36.587512 -121.850010 232 169ft 0kts
18-Nov-18 14:30 36.587512 -121.850010 232 169ft 0kts
18-Nov-18 14:31 36.587512 -121.850010 232 169ft 0kts
18-Nov-18 14:32 36.587512 -121.850010 232 169ft 0kts
18-Nov-18 14:33 36.587512 -121.850010 232 169ft 0kts
18-Nov-18 14:34 36.587512 -121.850010 232 169ft 0kts
18-Nov-18 14:35 36.587512 -121.850010 232 169ft 0kts
18-Nov-18 14:36 36.587512 -121.850010 232 169ft 0kts
18-Nov-18 14:37 36.587512 -121.850010 232 169ft 0kts
18-Nov-18 14:38 36.587824 -121.849794 170 169ft 2kts
18-Nov-18 14:39 36.588083 -121.850076 112 169ft 0kts
18-Nov-18 14:40 36.588083 -121.850075 112 169ft 0kts
18-Nov-18 14:41 36.586848 -121.846463 116 169ft 27kts
18-Nov-18 14:42 36.583889 -121.838152 113 169ft 26kts
18-Nov-18 14:43 36.582858 -121.835103 104 169ft 0kts
18-Nov-18 14:44 36.582858 -121.835103 104 169ft 0kts
18-Nov-18 14:45 36.582856 -121.835094 104 169ft 0kts
18-Nov-18 14:46 36.583734 -121.834753 291 169ft 35kts
18-Nov-18 14:47 36.600413 -121.877304 308 1367ft 190kts
18-Nov-18 14:48 36.660569 -121.902337 343 3237ft 267kts
18-Nov-18 14:49 36.708247 -121.848100 97 6580ft 278kts
18-Nov-18 14:50 36.693748 -121.752256 102 9812ft 288kts
18-Nov-18 14:51 36.676187 -121.647617 102 12204ft 323kts
18-Nov-18 14:52 36.657154 -121.536017 108 14946ft 337kts
18-Nov-18 14:53 36.600534 -121.442650 131 17463ft 347kts
18-Nov-18 14:54 36.536941 -121.350083 132 19772ft 360kts
18-Nov-18 14:55 36.471650 -121.255349 133 21843ft 373kts
18-Nov-18 14:56 36.402983 -121.156024 133 23645ft 389kts
18-Nov-18 14:57 36.330892 -121.052099 132 25184ft 408kts
18-Nov-18 14:58 36.256015 -120.944492 131 26663ft 424kts
18-Nov-18 14:59 36.177015 -120.831298 131 27100ft 452kts
18-Nov-18 15:00 36.093724 -120.712336 131 27094ft 471kts
18-Nov-18 15:01 36.009196 -120.592020 131 27092ft 470kts
18-Nov-18 15:02 35.923587 -120.470607 131 27094ft 471kts
18-Nov-18 15:03 35.839506 -120.351762 131 27093ft 471kts
18-Nov-18 15:04 35.754324 -120.231727 132 27092ft 471kts
18-Nov-18 15:05 35.668868 -120.111593 136 27087ft 470kts
18-Nov-18 15:06 35.559675 -120.027694 150 27091ft 466kts
18-Nov-18 15:07 35.449467 -119.944775 150 27096ft 467kts
18-Nov-18 15:08 35.339577 -119.862295 150 27098ft 467kts
18-Nov-18 15:09 35.233635 -119.773050 143 27083ft 469kts
18-Nov-18 15:10 35.130294 -119.676217 143 27087ft 468kts
18-Nov-18 15:11 35.027444 -119.580466 144 27098ft 468kts
18-Nov-18 15:12 34.924225 -119.484688 145 27108ft 476kts
18-Nov-18 15:13 34.820117 -119.390940 146 27104ft 477kts
18-Nov-18 15:14 34.715062 -119.297635 147 25897ft 474kts
18-Nov-18 15:15 34.613128 -119.208950 147 24031ft 413kts
18-Nov-18 15:16 34.525209 -119.132527 146 21566ft 374kts
18-Nov-18 15:17 34.442648 -119.059512 146 19343ft 365kts
18-Nov-18 15:18 34.361436 -118.989018 146 17134ft 357kts
18-Nov-18 15:19 34.282347 -118.918386 144 15055ft 352kts
18-Nov-18 15:20 34.205385 -118.848032 143 13031ft 347kts
18-Nov-18 15:21 34.132980 -118.776456 136 11379ft 319kts
18-Nov-18 15:22 34.071533 -118.709234 138 10396ft 286kts
18-Nov-18 15:23 34.027072 -118.634141 99 9370ft 283kts
18-Nov-18 15:24 34.017846 -118.540793 95 8197ft 279kts
18-Nov-18 15:25 34.010745 -118.449791 82 7094ft 263kts
18-Nov-18 15:26 34.025532 -118.366696 77 6110ft 249kts
18-Nov-18 15:27 34.034389 -118.289830 83 5216ft 233kts
18-Nov-18 15:28 34.042173 -118.213578 82 4272ft 229kts
18-Nov-18 15:29 34.005641 -118.167555 188 3465ft 226kts
18-Nov-18 15:30 33.971071 -118.220779 261 2987ft 194kts
18-Nov-18 15:31 33.964391 -118.281805 262 2121ft 183kts
18-Nov-18 15:32 33.958839 -118.335989 261 1194ft 155kts
18-Nov-18 15:33 33.953545 -118.387388 262 414ft 155kts
18-Nov-18 15:34 33.949192 -118.419554 233 124ft 35kts
18-Nov-18 15:35 33.947189 -118.418811 84 123ft 23kts
18-Nov-18 15:36 33.948178 -118.410545 84 127ft 20kts
18-Nov-18 15:37 33.948504 -118.402838 161 122ft 19kts
18-Nov-18 15:38 33.946133 -118.401820 92 122ft 0kts

Navigation Log

Ident Type
Flight plan parsing failed, navigation log unavailable